CYSP

Marathon Airport

Marathon, Ontario, Canada
METAR CYSP 222100Z 18005KT 160V250 12SM -SHRA SCT016 BKN020 OVC030 05/04 A2982 RMK SC3SC2SC3 CVCTV CLD EMBD LAST STFD OBS/NEXT 231200UTC SLP112
Observed Flight Rules
Oct-22 @ 21:00 UTC (15 hours ago) Marginal Visual Flight Rules
Wind Visibility Clouds Conditions
180° at 5 knots 12 miles
  • Scattered at 1,600' AGL
  • Broken at 2,000' AGL
  • Overcast at 3,000' AGL
  • Light Rain
Temperatures Readings
Current 5°C / 41°F
Dewpoint 4°C / 39°F
Humidity 93%
Altimeter 29.82" Hg
Pressure 1011.2 hPa
Elevation 315
METAR CYSP 222100Z 18005KT 160V250 12SM -SHRA SCT016 BKN020 OVC030 05/04 A2982 RMK SC3SC2SC3 CVCTV CLD EMBD LAST STFD OBS/NEXT 231200UTC SLP112
Observed Flight Rules
Oct-22 @ 21:00 UTC
(15 hours ago)
MVFR
Wind Visibility
180° at 5 knots 12 miles
Clouds
  • Scattered at 1,600' AGL
  • Broken at 2,000' AGL
  • Overcast at 3,000' AGL
Conditions
  • Light Rain
Temperature Dewpoint
5°C / 41°F 4°C / 39°F
Humidity Altimeter Pressure
93% 29.82" Hg 1011.2 hPa